createdAt,value
2023-02-11T00:00:14.855Z,84.55
2023-02-11T00:02:19.643Z,84.79
2023-02-11T00:04:22.732Z,84.47
2023-02-11T00:06:26.932Z,84.78
2023-02-11T00:08:29.849Z,84.60
2023-02-11T00:10:32.817Z,84.43
2023-02-11T00:12:36.571Z,84.43
2023-02-11T00:14:39.747Z,84.49
2023-02-11T00:16:42.961Z,84.01
2023-02-11T00:18:48.892Z,84.42
2023-02-11T00:20:51.740Z,84.18
2023-02-11T00:22:54.780Z,84.33
2023-02-11T00:24:57.933Z,84.05
2023-02-11T00:27:00.852Z,85.10
2023-02-11T00:29:05.889Z,85.01
2023-02-11T00:31:09.335Z,85.29
2023-02-11T00:33:13.168Z,84.62
2023-02-11T00:35:17.748Z,84.74
2023-02-11T00:37:20.717Z,84.75
2023-02-11T00:39:23.696Z,84.94
2023-02-11T00:41:26.858Z,85.23
2023-02-11T00:43:30.126Z,85.44
2023-02-11T00:45:33.092Z,84.71
2023-02-11T00:47:38.097Z,85.24
2023-02-11T00:49:41.297Z,85.05
2023-02-11T00:51:45.782Z,83.69
2023-02-11T00:53:48.805Z,83.90
2023-02-11T00:55:52.132Z,84.48
2023-02-11T00:57:55.048Z,83.79
2023-02-11T00:59:57.966Z,84.35
2023-02-11T01:02:01.086Z,83.95
2023-02-11T01:04:04.307Z,84.45
2023-02-11T01:06:07.807Z,85.51
2023-02-11T01:08:15.209Z,84.22
2023-02-11T01:10:18.369Z,84.89
2023-02-11T01:12:22.000Z,85.00
2023-02-11T01:14:25.016Z,85.62
2023-02-11T01:16:28.060Z,85.47
2023-02-11T01:18:30.932Z,84.20
2023-02-11T01:20:34.085Z,85.63
2023-02-11T01:22:39.863Z,85.13
2023-02-11T01:24:45.675Z,85.56
2023-02-11T01:26:48.712Z,84.91
2023-02-11T01:28:52.037Z,84.75
2023-02-11T01:30:56.150Z,84.89
2023-02-11T01:32:59.132Z,84.40
2023-02-11T01:35:02.035Z,83.96
2023-02-11T01:37:05.052Z,84.80
2023-02-11T01:39:09.054Z,84.33
2023-02-11T01:41:15.415Z,84.59
2023-02-11T01:43:19.252Z,84.26
2023-02-11T01:45:53.732Z,83.36
2023-02-11T01:47:57.612Z,83.76
2023-02-11T01:50:02.774Z,84.15
2023-02-11T01:52:10.370Z,83.59
2023-02-11T01:54:35.730Z,83.82
2023-02-11T01:57:03.058Z,82.82
2023-02-11T01:59:12.216Z,83.32
2023-02-11T02:01:18.805Z,83.35
2023-02-11T02:03:24.914Z,83.27
2023-02-11T02:05:35.226Z,83.08
2023-02-11T02:07:45.691Z,82.72
2023-02-11T02:09:55.934Z,82.25
2023-02-11T02:12:00.459Z,82.67
2023-02-11T02:14:03.875Z,82.69
2023-02-11T02:16:11.571Z,82.45
2023-02-11T02:18:30.441Z,83.46
2023-02-11T02:21:24.528Z,82.13
2023-02-11T02:23:36.009Z,82.23
2023-02-11T02:25:58.648Z,82.64
2023-02-11T02:28:18.598Z,82.89
2023-02-11T02:30:39.051Z,82.94
2023-02-11T02:32:51.225Z,82.28
2023-02-11T02:35:03.420Z,82.36
2023-02-11T02:37:11.491Z,82.02
2023-02-11T02:39:20.921Z,82.15
2023-02-11T02:41:29.175Z,81.37
2023-02-11T02:43:33.865Z,81.25
2023-02-11T02:45:36.900Z,82.09
2023-02-11T02:47:39.913Z,81.87
2023-02-11T02:49:44.228Z,81.89
2023-02-11T02:52:08.212Z,81.99
2023-02-11T02:54:44.385Z,82.81
2023-02-11T02:56:55.870Z,82.04
2023-02-11T02:59:12.770Z,82.94
2023-02-11T03:01:27.369Z,82.67
2023-02-11T03:03:40.483Z,82.04
2023-02-11T03:05:50.452Z,82.20
2023-02-11T03:07:59.173Z,82.13
2023-02-11T03:10:09.578Z,82.09
2023-02-11T03:12:14.171Z,82.62
2023-02-11T03:14:18.971Z,82.92
2023-02-11T03:16:26.023Z,83.01
2023-02-11T03:18:31.079Z,83.45
2023-02-11T03:20:37.719Z,82.41
2023-02-11T03:22:48.543Z,83.04
2023-02-11T03:24:51.929Z,83.25
2023-02-11T03:26:57.929Z,83.28
2023-02-11T03:29:06.852Z,82.01
2023-02-11T03:31:17.854Z,82.07
2023-02-11T03:33:28.135Z,82.67
2023-02-11T03:35:37.294Z,82.18
2023-02-11T03:37:45.889Z,82.49
2023-02-11T03:39:54.069Z,82.16
2023-02-11T03:42:00.533Z,82.19
2023-02-11T03:44:06.090Z,81.20
2023-02-11T03:46:11.414Z,81.93
2023-02-11T03:48:19.378Z,81.17
2023-02-11T03:50:24.053Z,81.04
2023-02-11T03:52:28.498Z,80.52
2023-02-11T03:54:33.351Z,80.43
2023-02-11T03:56:46.330Z,80.16
2023-02-11T03:58:49.883Z,80.60
2023-02-11T04:00:52.947Z,80.29
2023-02-11T04:02:55.771Z,80.55
2023-02-11T04:04:58.818Z,80.26
2023-02-11T04:07:01.810Z,79.23
2023-02-11T04:09:05.378Z,79.81
2023-02-11T04:11:10.050Z,79.46
2023-02-11T04:13:12.930Z,79.63
2023-02-11T04:15:15.970Z,80.39
2023-02-11T04:17:19.090Z,80.79
2023-02-11T04:19:22.270Z,79.66
2023-02-11T04:21:25.569Z,79.10
2023-02-11T04:23:28.501Z,79.20
2023-02-11T04:25:31.529Z,79.84
2023-02-11T04:27:36.576Z,79.54
2023-02-11T04:29:39.486Z,79.61
2023-02-11T04:31:42.290Z,79.39
2023-02-11T04:33:45.262Z,79.35
2023-02-11T04:35:48.372Z,79.22
2023-02-11T04:37:51.400Z,78.60
2023-02-11T04:39:54.266Z,78.60
2023-02-11T04:41:57.254Z,78.67
2023-02-11T04:44:01.562Z,79.64
2023-02-11T04:46:04.684Z,78.81
2023-02-11T04:48:07.772Z,79.23
2023-02-11T04:50:11.173Z,78.58
2023-02-11T04:52:13.944Z,79.07
2023-02-11T04:54:17.757Z,78.46
2023-02-11T04:56:20.732Z,78.46
2023-02-11T04:58:24.692Z,78.54
2023-02-11T05:00:29.652Z,79.19
2023-02-11T05:02:32.891Z,79.03
2023-02-11T05:04:35.722Z,79.51
2023-02-11T05:06:39.723Z,78.92
2023-02-11T05:08:42.771Z,78.67
2023-02-11T05:10:48.426Z,78.74
2023-02-11T05:12:51.625Z,78.67
2023-02-11T05:14:55.460Z,78.25
2023-02-11T05:16:59.869Z,77.98
2023-02-11T05:19:02.892Z,77.48
2023-02-11T05:21:07.400Z,78.25
2023-02-11T05:23:10.492Z,78.35
2023-02-11T05:25:13.430Z,78.59
2023-02-11T05:27:16.430Z,78.15
2023-02-11T05:29:20.352Z,78.62
2023-02-11T05:31:23.370Z,77.95
2023-02-11T05:33:28.131Z,78.67
2023-02-11T05:35:31.131Z,79.22
2023-02-11T05:37:33.965Z,79.08
2023-02-11T05:39:37.170Z,79.01
2023-02-11T05:41:40.276Z,78.71
2023-02-11T05:43:43.253Z,78.88
2023-02-11T05:45:46.141Z,78.21
2023-02-11T05:47:49.077Z,78.95
2023-02-11T05:49:54.011Z,79.01
2023-02-11T05:51:57.098Z,79.17
2023-02-11T05:53:59.930Z,79.47
2023-02-11T05:56:02.907Z,79.30
2023-02-11T05:58:06.531Z,79.55
2023-02-11T06:00:11.095Z,79.47
2023-02-11T06:02:16.826Z,79.68
2023-02-11T06:04:19.861Z,79.56
2023-02-11T06:06:24.253Z,79.22
2023-02-11T06:08:27.251Z,79.52
2023-02-11T06:10:30.290Z,79.78
2023-02-11T06:12:33.415Z,79.78
2023-02-11T06:14:36.293Z,79.81
2023-02-11T06:16:39.352Z,79.31
2023-02-11T06:18:42.181Z,80.65
2023-02-11T06:20:45.099Z,79.23
2023-02-11T06:22:49.491Z,79.03
2023-02-11T06:25:01.196Z,79.16
2023-02-11T06:27:07.411Z,79.02
2023-02-11T06:29:10.573Z,78.73
2023-02-11T06:31:13.923Z,79.23
2023-02-11T06:33:17.075Z,79.34
2023-02-11T06:35:20.074Z,78.96
2023-02-11T06:37:23.039Z,79.22
2023-02-11T06:39:27.470Z,79.32
2023-02-11T06:41:30.691Z,78.74
2023-02-11T06:43:33.572Z,78.67
2023-02-11T06:45:36.557Z,78.87
2023-02-11T06:47:40.260Z,78.83
2023-02-11T06:49:43.141Z,78.86
2023-02-11T06:51:46.213Z,79.37
2023-02-11T06:53:49.372Z,79.56
2023-02-11T06:55:53.772Z,79.20
2023-02-11T06:57:56.775Z,79.22
2023-02-11T06:59:59.853Z,79.16
2023-02-11T07:02:02.917Z,79.21
2023-02-11T07:04:07.222Z,79.84
2023-02-11T07:06:14.099Z,79.41
2023-02-11T07:08:17.602Z,79.69
2023-02-11T07:10:20.632Z,79.50
2023-02-11T07:12:24.991Z,79.15
2023-02-11T07:14:28.274Z,79.09
2023-02-11T07:16:32.002Z,78.71
2023-02-11T07:18:35.265Z,78.64
2023-02-11T07:20:39.331Z,78.46
2023-02-11T07:22:42.270Z,77.86
2023-02-11T07:24:45.284Z,77.76
2023-02-11T07:26:48.413Z,77.75
2023-02-11T07:28:53.484Z,78.35
2023-02-11T07:30:56.649Z,77.50
2023-02-11T07:32:59.457Z,77.51
2023-02-11T07:35:02.672Z,77.69
2023-02-11T07:37:05.780Z,77.02
2023-02-11T07:39:08.721Z,76.94
2023-02-11T07:41:14.213Z,76.80
2023-02-11T07:43:17.196Z,76.78
2023-02-11T07:45:22.372Z,76.72
2023-02-11T07:47:25.361Z,75.33
2023-02-11T07:49:28.514Z,75.62
2023-02-11T07:51:32.211Z,74.69
2023-02-11T07:53:35.251Z,73.13
2023-02-11T07:55:38.332Z,73.93
2023-02-11T07:57:41.608Z,73.28
2023-02-11T07:59:44.612Z,71.90
2023-02-11T08:01:49.093Z,72.70
2023-02-11T08:03:52.292Z,72.62
2023-02-11T08:05:55.510Z,71.71
2023-02-11T08:07:58.590Z,72.21
2023-02-11T08:10:01.585Z,71.91
2023-02-11T08:12:05.249Z,71.78
2023-02-11T08:14:08.929Z,72.55
2023-02-11T08:16:19.919Z,72.60
2023-02-11T08:18:24.448Z,72.71
2023-02-11T08:20:27.527Z,71.96
2023-02-11T08:22:32.087Z,72.52
2023-02-11T08:24:35.224Z,72.23
2023-02-11T08:26:38.329Z,74.28
2023-02-11T08:28:43.889Z,74.06
2023-02-11T08:30:46.958Z,73.00
2023-02-11T08:32:50.120Z,72.78
2023-02-11T08:34:54.894Z,73.34
2023-02-11T08:36:57.911Z,73.87
2023-02-11T08:39:18.563Z,71.86
2023-02-11T08:41:22.305Z,71.99
2023-02-11T08:43:25.205Z,73.16
2023-02-11T08:45:28.556Z,73.24
2023-02-11T08:47:31.911Z,72.84
2023-02-11T08:49:35.007Z,73.11
2023-02-11T08:51:39.446Z,72.54
2023-02-11T08:53:42.606Z,72.46
2023-02-11T08:55:49.915Z,72.41
2023-02-11T08:57:53.132Z,72.47
2023-02-11T08:59:56.008Z,72.67
2023-02-11T09:01:59.271Z,73.02
2023-02-11T09:04:02.334Z,72.47
2023-02-11T09:06:06.729Z,73.04
2023-02-11T09:08:11.365Z,73.34
2023-02-11T09:10:14.406Z,73.78
2023-02-11T09:12:17.264Z,72.75
2023-02-11T09:14:22.590Z,73.42
2023-02-11T09:16:27.920Z,72.36
2023-02-11T09:18:31.166Z,73.37
2023-02-11T09:20:34.533Z,73.98
2023-02-11T09:22:37.439Z,74.18
2023-02-11T09:24:42.108Z,73.90
2023-02-11T09:26:45.327Z,73.46
2023-02-11T09:28:49.096Z,74.24
2023-02-11T09:30:52.425Z,73.69
2023-02-11T09:32:55.586Z,72.37
2023-02-11T09:34:58.636Z,73.25
2023-02-11T09:37:02.208Z,73.48
2023-02-11T09:39:06.718Z,72.99
2023-02-11T09:41:42.668Z,73.38
2023-02-11T09:43:48.767Z,73.29
2023-02-11T09:45:55.362Z,72.68
2023-02-11T09:48:04.411Z,73.14
2023-02-11T09:50:13.511Z,73.61
2023-02-11T09:52:26.126Z,72.52
2023-02-11T09:54:34.798Z,72.65
2023-02-11T09:56:39.241Z,73.10
2023-02-11T09:58:43.998Z,72.21
2023-02-11T10:00:52.071Z,73.15
2023-02-11T10:03:27.400Z,72.23
2023-02-11T10:05:43.743Z,72.03
2023-02-11T10:07:54.870Z,72.99
2023-02-11T10:10:13.692Z,72.04
2023-02-11T10:12:33.172Z,73.11
2023-02-11T10:14:56.086Z,72.23
2023-02-11T10:17:13.101Z,69.48
2023-02-11T10:19:30.471Z,71.33
2023-02-11T10:21:46.943Z,70.70
2023-02-11T10:23:55.032Z,71.06
2023-02-11T10:25:59.464Z,71.12
2023-02-11T10:28:13.594Z,71.02
2023-02-11T10:30:24.112Z,71.18
2023-02-11T10:32:35.462Z,70.82
2023-02-11T10:34:42.701Z,70.65
2023-02-11T10:36:45.880Z,69.56
2023-02-11T10:38:48.842Z,69.47
2023-02-11T10:40:52.672Z,69.66
2023-02-11T10:42:59.637Z,70.78
2023-02-11T10:45:07.671Z,69.18
2023-02-11T10:47:16.202Z,68.81
2023-02-11T10:49:38.355Z,68.42
2023-02-11T10:51:41.362Z,71.05
2023-02-11T10:53:44.833Z,68.68
2023-02-11T10:55:53.135Z,68.53
2023-02-11T10:57:59.244Z,70.20
2023-02-11T11:00:21.444Z,69.41
2023-02-11T11:02:32.269Z,69.82
2023-02-11T11:04:42.748Z,68.69
2023-02-11T11:06:45.776Z,68.50
2023-02-11T11:08:51.191Z,70.28
2023-02-11T11:11:07.622Z,70.98
2023-02-11T11:13:34.301Z,70.15
2023-02-11T11:15:38.419Z,68.62
2023-02-11T11:17:41.321Z,68.76
2023-02-11T11:19:44.693Z,68.63
2023-02-11T11:21:49.013Z,70.17
2023-02-11T11:23:59.594Z,69.59
2023-02-11T11:26:05.639Z,68.65
2023-02-11T11:28:22.286Z,69.10
2023-02-11T11:30:31.951Z,70.26
2023-02-11T11:32:37.466Z,68.78
2023-02-11T11:34:43.005Z,69.55
2023-02-11T11:36:46.042Z,68.82
2023-02-11T11:38:52.793Z,69.76
2023-02-11T11:41:17.438Z,69.70
2023-02-11T11:43:23.222Z,69.29
2023-02-11T11:45:27.371Z,70.81
2023-02-11T11:47:36.648Z,70.84
2023-02-11T11:49:45.918Z,70.01
2023-02-11T11:51:57.747Z,70.02
2023-02-11T11:54:03.645Z,70.41
2023-02-11T11:56:11.878Z,71.17
2023-02-11T11:58:17.784Z,70.08
2023-02-11T12:00:24.495Z,71.77
2023-02-11T12:03:01.455Z,71.67
2023-02-11T12:05:09.732Z,71.77
2023-02-11T12:07:27.357Z,71.38
2023-02-11T12:09:42.245Z,72.46
2023-02-11T12:12:11.891Z,72.14
2023-02-11T12:14:24.642Z,72.58
2023-02-11T12:16:43.981Z,73.46
2023-02-11T12:19:17.320Z,73.43
2023-02-11T12:21:33.578Z,72.48
2023-02-11T12:23:50.229Z,71.41
2023-02-11T12:26:01.980Z,74.56
2023-02-11T12:28:20.569Z,74.26
2023-02-11T12:30:48.473Z,73.58
2023-02-11T12:33:02.261Z,72.38
2023-02-11T12:35:30.361Z,72.92
2023-02-11T12:37:45.978Z,71.70
2023-02-11T12:39:53.935Z,73.70
2023-02-11T12:42:38.054Z,73.19
2023-02-11T12:44:56.199Z,74.69
2023-02-11T12:47:09.524Z,74.12
2023-02-11T12:49:29.356Z,73.69
2023-02-11T12:51:50.002Z,74.14
2023-02-11T12:54:16.283Z,74.45
2023-02-11T12:56:24.023Z,74.87
2023-02-11T12:58:44.170Z,75.37
2023-02-11T13:00:52.292Z,74.99
2023-02-11T13:03:00.338Z,74.73
2023-02-11T13:05:13.300Z,75.83
2023-02-11T13:07:24.267Z,74.63
2023-02-11T13:09:32.256Z,75.95
2023-02-11T13:11:40.281Z,75.88
2023-02-11T13:13:50.233Z,76.35
2023-02-11T13:16:01.320Z,76.35
2023-02-11T13:18:19.037Z,76.56
2023-02-11T13:20:35.537Z,76.90
2023-02-11T13:22:42.876Z,76.16
2023-02-11T13:24:53.737Z,76.37
2023-02-11T13:27:05.938Z,78.38
2023-02-11T13:29:29.547Z,78.90
2023-02-11T13:31:32.619Z,77.65
2023-02-11T13:33:37.867Z,78.71
2023-02-11T13:35:44.001Z,77.39
2023-02-11T13:37:49.205Z,78.35
2023-02-11T13:40:00.402Z,77.87
2023-02-11T13:42:04.935Z,77.11
2023-02-11T13:44:22.592Z,77.87
2023-02-11T13:46:28.141Z,78.01
2023-02-11T13:48:34.109Z,77.45
2023-02-11T13:50:40.100Z,76.29
2023-02-11T13:52:43.054Z,77.48
2023-02-11T13:54:52.263Z,77.23
2023-02-11T13:57:28.028Z,77.03
2023-02-11T13:59:47.902Z,77.44
2023-02-11T14:02:24.393Z,76.79
2023-02-11T14:04:48.784Z,76.57
2023-02-11T14:07:44.542Z,77.86
2023-02-11T14:09:53.743Z,75.99
2023-02-11T14:12:23.746Z,77.38
2023-02-11T14:14:28.555Z,77.59
2023-02-11T14:16:37.907Z,76.53
2023-02-11T14:19:02.736Z,77.11
2023-02-11T14:21:13.556Z,77.47
2023-02-11T14:23:27.633Z,76.10
2023-02-11T14:25:32.460Z,76.95
2023-02-11T14:27:41.399Z,77.69
2023-02-11T14:29:51.766Z,77.82
2023-02-11T14:32:05.744Z,77.08
2023-02-11T14:34:38.330Z,76.70
2023-02-11T14:37:14.018Z,77.01
2023-02-11T14:39:27.517Z,77.42
2023-02-11T14:41:36.197Z,78.12
2023-02-11T14:43:43.564Z,76.98
2023-02-11T14:45:51.234Z,77.63
2023-02-11T14:48:00.826Z,77.54
2023-02-11T14:50:04.019Z,78.72
2023-02-11T14:52:17.505Z,78.27
2023-02-11T14:54:25.499Z,77.27
2023-02-11T14:56:31.516Z,77.55
2023-02-11T14:58:35.880Z,78.47
2023-02-11T15:00:49.788Z,78.41
2023-02-11T15:02:54.171Z,78.58
2023-02-11T15:05:19.903Z,78.34
2023-02-11T15:07:23.116Z,78.81
2023-02-11T15:09:34.928Z,79.73
2023-02-11T15:11:41.338Z,79.07
2023-02-11T15:13:50.032Z,80.56
2023-02-11T15:15:56.936Z,80.08
2023-02-11T15:18:03.762Z,80.66
2023-02-11T15:20:16.222Z,82.50
2023-02-11T15:22:22.797Z,82.24
2023-02-11T15:24:28.557Z,82.69
2023-02-11T15:26:31.599Z,83.27
2023-02-11T15:28:36.020Z,83.93
2023-02-11T15:30:40.556Z,84.05
2023-02-11T15:32:45.567Z,83.29
2023-02-11T15:34:49.875Z,83.65
2023-02-11T15:36:52.834Z,84.49
2023-02-11T15:39:18.976Z,82.95
2023-02-11T15:41:36.989Z,83.21
2023-02-11T15:43:44.927Z,83.94
2023-02-11T15:45:59.494Z,83.91
2023-02-11T15:48:13.328Z,85.06
2023-02-11T15:50:22.028Z,85.57
2023-02-11T15:52:26.878Z,86.09
2023-02-11T15:54:32.538Z,86.33
2023-02-11T15:56:43.596Z,86.35
2023-02-11T15:58:50.077Z,87.26
2023-02-11T16:01:00.020Z,86.93
2023-02-11T16:03:03.150Z,89.13
2023-02-11T16:05:08.242Z,89.39
2023-02-11T16:07:38.902Z,89.67
2023-02-11T16:09:41.916Z,89.32
2023-02-11T16:11:58.755Z,89.56
2023-02-11T16:14:05.801Z,89.22
2023-02-11T16:16:20.165Z,90.30
2023-02-11T16:18:39.838Z,90.26
2023-02-11T16:20:48.355Z,89.68
2023-02-11T16:22:51.637Z,89.23
2023-02-11T16:24:57.681Z,90.19
2023-02-11T16:27:02.533Z,91.01
2023-02-11T16:29:08.196Z,91.36
2023-02-11T16:31:11.323Z,90.10
2023-02-11T16:33:15.856Z,90.13
2023-02-11T16:35:19.077Z,90.87
2023-02-11T16:37:22.037Z,90.67
2023-02-11T16:39:25.255Z,90.10
2023-02-11T16:41:28.258Z,90.15
2023-02-11T16:43:31.237Z,90.33
2023-02-11T16:45:38.524Z,91.93
2023-02-11T16:47:42.917Z,91.89
2023-02-11T16:49:47.358Z,90.32
2023-02-11T16:51:52.978Z,90.13
2023-02-11T16:53:55.491Z,90.73
2023-02-11T16:55:58.396Z,90.52
2023-02-11T16:58:01.639Z,91.27
2023-02-11T17:00:06.956Z,90.09
2023-02-11T17:02:15.946Z,90.55
2023-02-11T17:04:21.626Z,92.16
2023-02-11T17:06:26.274Z,91.26
2023-02-11T17:08:30.275Z,90.61
2023-02-11T17:10:33.318Z,91.65
2023-02-11T17:12:36.130Z,91.52
2023-02-11T17:14:39.107Z,91.02
2023-02-11T17:16:43.434Z,91.24
2023-02-11T17:18:46.459Z,92.36
2023-02-11T17:20:49.391Z,91.15
2023-02-11T17:22:53.852Z,92.71
2023-02-11T17:24:57.390Z,91.43
2023-02-11T17:27:00.188Z,92.49
2023-02-11T17:29:04.800Z,92.92
2023-02-11T17:31:09.528Z,92.00
2023-02-11T17:33:12.450Z,91.59
2023-02-11T17:35:15.509Z,93.03
2023-02-11T17:37:18.267Z,91.50
2023-02-11T17:39:22.658Z,92.64
2023-02-11T17:41:25.548Z,91.64
2023-02-11T17:43:29.248Z,92.40
2023-02-11T17:45:32.208Z,92.61
2023-02-11T17:47:35.790Z,92.70
2023-02-11T17:49:38.869Z,92.37
2023-02-11T17:51:41.716Z,92.04
2023-02-11T17:53:44.788Z,92.73
2023-02-11T17:55:49.293Z,92.58
2023-02-11T17:57:52.350Z,93.62
2023-02-11T17:59:55.129Z,92.48
2023-02-11T18:01:57.931Z,93.02
2023-02-11T18:04:00.869Z,92.67
2023-02-11T18:06:06.798Z,93.34
2023-02-11T18:08:09.589Z,92.75
2023-02-11T18:10:12.724Z,93.66
2023-02-11T18:12:25.478Z,94.34
2023-02-11T18:14:28.437Z,93.80
2023-02-11T18:16:31.545Z,93.23
2023-02-11T18:18:34.760Z,93.67
2023-02-11T18:20:37.519Z,94.17
2023-02-11T18:22:41.263Z,93.01
2023-02-11T18:24:44.144Z,93.72
2023-02-11T18:26:46.999Z,93.61
2023-02-11T18:28:52.821Z,93.67
2023-02-11T18:30:58.615Z,93.49
2023-02-11T18:33:01.485Z,92.86
2023-02-11T18:35:04.830Z,93.48
2023-02-11T18:37:07.823Z,93.60
2023-02-11T18:39:10.844Z,93.17
2023-02-11T18:41:14.526Z,93.46
2023-02-11T18:43:18.054Z,93.87
2023-02-11T18:45:24.157Z,93.98
2023-02-11T18:47:27.126Z,93.97
2023-02-11T18:49:30.323Z,93.09
2023-02-11T18:51:33.521Z,93.42
2023-02-11T18:53:36.595Z,92.54
2023-02-11T18:55:40.397Z,92.59
2023-02-11T18:57:43.482Z,92.20
2023-02-11T18:59:46.518Z,92.26
2023-02-11T19:01:52.088Z,92.69
2023-02-11T19:03:55.239Z,93.26
2023-02-11T19:05:58.117Z,93.32
2023-02-11T19:08:01.399Z,93.72
2023-02-11T19:10:05.115Z,92.78
2023-02-11T19:12:09.039Z,93.65
2023-02-11T19:14:12.636Z,93.38
2023-02-11T19:16:17.173Z,93.64
2023-02-11T19:18:21.957Z,92.87
2023-02-11T19:20:24.917Z,93.84
2023-02-11T19:22:27.812Z,93.22
2023-02-11T19:24:31.194Z,93.33
2023-02-11T19:26:34.876Z,93.83
2023-02-11T19:28:38.019Z,93.55
2023-02-11T19:30:41.320Z,93.70
2023-02-11T19:32:44.395Z,93.06
2023-02-11T19:34:49.117Z,93.29
2023-02-11T19:36:52.327Z,93.48
2023-02-11T19:38:55.324Z,93.59
2023-02-11T19:40:59.036Z,93.88
2023-02-11T19:43:01.917Z,93.15
2023-02-11T19:45:07.717Z,93.24
2023-02-11T19:47:10.881Z,94.01
2023-02-11T19:49:16.156Z,93.24
2023-02-11T19:51:21.276Z,92.64
2023-02-11T19:53:24.798Z,94.09
2023-02-11T19:55:27.717Z,93.99
2023-02-11T19:57:30.661Z,93.81
2023-02-11T19:59:33.836Z,92.90
2023-02-11T20:01:37.487Z,94.20
2023-02-11T20:03:42.507Z,92.56
2023-02-11T20:05:48.142Z,92.46
2023-02-11T20:07:52.549Z,93.96
2023-02-11T20:09:55.797Z,92.61
2023-02-11T20:11:58.996Z,92.88
2023-02-11T20:14:02.440Z,94.15
2023-02-11T20:16:07.118Z,93.48
2023-02-11T20:18:10.034Z,92.79
2023-02-11T20:20:13.525Z,93.21
2023-02-11T20:22:16.590Z,94.42
2023-02-11T20:24:21.160Z,94.35
2023-02-11T20:26:25.954Z,93.30
2023-02-11T20:28:28.850Z,93.63
2023-02-11T20:30:32.074Z,94.60
2023-02-11T20:32:38.626Z,94.44
2023-02-11T20:34:41.639Z,93.41
2023-02-11T20:36:51.959Z,93.25
2023-02-11T20:38:55.716Z,94.73
2023-02-11T20:41:05.591Z,93.83
2023-02-11T20:43:08.663Z,94.87
2023-02-11T20:45:11.712Z,94.69
2023-02-11T20:47:14.711Z,94.79
2023-02-11T20:49:20.635Z,93.82
2023-02-11T20:51:25.592Z,94.11
2023-02-11T20:53:28.432Z,93.99
2023-02-11T20:55:31.714Z,94.36
2023-02-11T20:57:36.113Z,93.60
2023-02-11T20:59:39.116Z,94.88
2023-02-11T21:01:44.152Z,93.58
2023-02-11T21:03:52.033Z,93.78
2023-02-11T21:05:58.954Z,93.62
2023-02-11T21:08:01.873Z,94.41
2023-02-11T21:10:05.447Z,93.73
2023-02-11T21:12:09.246Z,93.66
2023-02-11T21:14:13.991Z,95.32
2023-02-11T21:16:20.796Z,93.76
2023-02-11T21:18:24.597Z,95.32
2023-02-11T21:20:27.654Z,94.34
2023-02-11T21:22:30.574Z,93.79
2023-02-11T21:24:33.525Z,94.10
2023-02-11T21:26:37.716Z,94.41
2023-02-11T21:28:41.248Z,95.37
2023-02-11T21:30:45.902Z,95.38
2023-02-11T21:32:48.959Z,95.30
2023-02-11T21:34:51.881Z,95.64
2023-02-11T21:36:55.003Z,95.40
2023-02-11T21:38:58.131Z,94.93
2023-02-11T21:41:04.359Z,95.58
2023-02-11T21:43:07.520Z,95.20
2023-02-11T21:45:11.090Z,94.84
2023-02-11T21:47:15.639Z,94.23
2023-02-11T21:49:20.136Z,95.40
2023-02-11T21:51:24.610Z,94.18
2023-02-11T21:53:27.550Z,94.55
2023-02-11T21:55:30.370Z,94.44
2023-02-11T21:57:33.263Z,94.31
2023-02-11T21:59:36.250Z,94.37
2023-02-11T22:01:39.244Z,94.31
2023-02-11T22:03:44.121Z,94.89
2023-02-11T22:05:47.180Z,95.10
2023-02-11T22:07:50.283Z,95.72
2023-02-11T22:09:55.082Z,95.53
2023-02-11T22:11:58.001Z,95.02
2023-02-11T22:14:00.923Z,95.64
2023-02-11T22:16:05.786Z,94.45
2023-02-11T22:18:08.775Z,95.72
2023-02-11T22:20:13.502Z,94.40
2023-02-11T22:22:18.646Z,94.92
2023-02-11T22:24:21.486Z,94.97
2023-02-11T22:26:27.041Z,94.61
2023-02-11T22:28:30.375Z,94.84
2023-02-11T22:30:33.388Z,95.52
2023-02-11T22:32:36.361Z,95.86
2023-02-11T22:34:39.676Z,96.02
2023-02-11T22:36:45.715Z,95.32
2023-02-11T22:38:48.835Z,95.00
2023-02-11T22:40:51.763Z,95.79
2023-02-11T22:42:54.673Z,94.88
2023-02-11T22:44:57.513Z,95.42
2023-02-11T22:47:00.553Z,94.96
2023-02-11T22:49:03.872Z,95.17
2023-02-11T22:51:08.756Z,94.67
2023-02-11T22:53:13.152Z,94.36
2023-02-11T22:55:16.317Z,95.50
2023-02-11T22:57:19.130Z,94.82
2023-02-11T22:59:22.393Z,95.60
2023-02-11T23:01:25.660Z,94.63
2023-02-11T23:03:29.162Z,95.82
2023-02-11T23:05:32.032Z,95.40
2023-02-11T23:07:35.032Z,94.75
2023-02-11T23:09:39.394Z,95.49
2023-02-11T23:11:42.591Z,94.86
2023-02-11T23:13:46.933Z,95.00
2023-02-11T23:15:49.984Z,95.03
2023-02-11T23:17:53.055Z,95.28
2023-02-11T23:19:55.996Z,93.84
2023-02-11T23:21:59.102Z,94.99
2023-02-11T23:24:04.678Z,95.33
2023-02-11T23:26:12.073Z,95.35
2023-02-11T23:28:15.261Z,95.22
2023-02-11T23:30:18.952Z,94.18
2023-02-11T23:32:22.125Z,94.09
2023-02-11T23:34:26.073Z,95.32
2023-02-11T23:36:29.383Z,95.16
2023-02-11T23:38:32.195Z,93.84
2023-02-11T23:40:35.194Z,94.00
2023-02-11T23:42:39.567Z,93.56
2023-02-11T23:44:42.516Z,94.94
2023-02-11T23:46:45.598Z,94.10
2023-02-11T23:48:48.916Z,94.96
2023-02-11T23:50:51.839Z,93.86
2023-02-11T23:52:54.760Z,94.95
2023-02-11T23:54:57.679Z,93.92
2023-02-11T23:57:00.638Z,94.44
2023-02-11T23:59:05.350Z,93.80
